sensor_id;sensor_type;location;lat;lon;timestamp;temperature;humidity
66128;DHT22;52925;52.436;-1.952;2024-03-07T05:22:36;7.90;99.90
66128;DHT22;52925;52.436;-1.952;2024-03-07T05:23:59;7.90;99.90
66128;DHT22;52925;52.436;-1.952;2024-03-07T05:25:19;7.90;99.90
66128;DHT22;52925;52.436;-1.952;2024-03-07T05:26:41;7.90;99.90
66128;DHT22;52925;52.436;-1.952;2024-03-07T05:28:01;7.90;99.90
66128;DHT22;52925;52.436;-1.952;2024-03-07T05:29:23;7.90;99.90
66128;DHT22;52925;52.436;-1.952;2024-03-07T05:30:43;7.90;99.90
66128;DHT22;52925;52.436;-1.952;2024-03-07T05:32:20;7.90;99.90
66128;DHT22;52925;52.436;-1.952;2024-03-07T05:33:40;7.90;99.90
66128;DHT22;52925;52.436;-1.952;2024-03-07T05:35:01;7.90;99.90
66128;DHT22;52925;52.436;-1.952;2024-03-07T05:36:21;7.90;99.90
66128;DHT22;52925;52.436;-1.952;2024-03-07T05:37:43;7.90;99.90
66128;DHT22;52925;52.436;-1.952;2024-03-07T05:39:06;7.90;99.90
66128;DHT22;52925;52.436;-1.952;2024-03-07T05:40:29;7.90;99.90
66128;DHT22;52925;52.436;-1.952;2024-03-07T05:41:49;7.90;99.90
66128;DHT22;52925;52.436;-1.952;2024-03-07T05:43:10;7.90;99.90
66128;DHT22;52925;52.436;-1.952;2024-03-07T05:44:32;7.90;99.90
66128;DHT22;52925;52.436;-1.952;2024-03-07T05:45:53;7.90;99.90
66128;DHT22;52925;52.436;-1.952;2024-03-07T05:47:13;7.90;99.90
66128;DHT22;52925;52.436;-1.952;2024-03-07T05:48:35;8.00;99.90
66128;DHT22;52925;52.436;-1.952;2024-03-07T05:49:56;7.90;99.90
66128;DHT22;52925;52.436;-1.952;2024-03-07T05:51:16;8.00;99.90
66128;DHT22;52925;52.436;-1.952;2024-03-07T05:52:36;7.90;99.90
66128;DHT22;52925;52.436;-1.952;2024-03-07T05:53:59;7.90;99.90
66128;DHT22;52925;52.436;-1.952;2024-03-07T05:55:18;8.00;99.90
66128;DHT22;52925;52.436;-1.952;2024-03-07T05:56:41;8.00;99.90
66128;DHT22;52925;52.436;-1.952;2024-03-07T05:58:01;7.90;99.90
66128;DHT22;52925;52.436;-1.952;2024-03-07T05:59:21;8.00;99.90
66128;DHT22;52925;52.436;-1.952;2024-03-07T06:00:43;8.00;99.90
66128;DHT22;52925;52.436;-1.952;2024-03-07T06:02:06;7.90;99.90
66128;DHT22;52925;52.436;-1.952;2024-03-07T06:03:26;8.00;99.90
66128;DHT22;52925;52.436;-1.952;2024-03-07T06:04:47;8.00;99.90
66128;DHT22;52925;52.436;-1.952;2024-03-07T06:06:07;8.00;99.90
66128;DHT22;52925;52.436;-1.952;2024-03-07T06:07:31;8.00;99.90
66128;DHT22;52925;52.436;-1.952;2024-03-07T06:08:51;8.00;99.90
66128;DHT22;52925;52.436;-1.952;2024-03-07T06:10:13;8.00;99.90
66128;DHT22;52925;52.436;-1.952;2024-03-07T06:11:36;8.00;99.90
66128;DHT22;52925;52.436;-1.952;2024-03-07T06:12:57;8.00;99.90
66128;DHT22;52925;52.436;-1.952;2024-03-07T06:14:18;8.00;99.90
66128;DHT22;52925;52.436;-1.952;2024-03-07T06:15:39;8.00;99.90
66128;DHT22;52925;52.436;-1.952;2024-03-07T06:16:59;8.00;99.90
66128;DHT22;52925;52.436;-1.952;2024-03-07T06:18:20;8.00;99.90
66128;DHT22;52925;52.436;-1.952;2024-03-07T06:19:40;8.00;99.90
66128;DHT22;52925;52.436;-1.952;2024-03-07T06:21:01;8.00;99.90
66128;DHT22;52925;52.436;-1.952;2024-03-07T06:22:23;8.00;99.90
66128;DHT22;52925;52.436;-1.952;2024-03-07T06:23:43;8.00;99.90
66128;DHT22;52925;52.436;-1.952;2024-03-07T06:25:05;8.00;99.90
66128;DHT22;52925;52.436;-1.952;2024-03-07T06:26:27;8.00;99.90
66128;DHT22;52925;52.436;-1.952;2024-03-07T06:27:56;8.00;99.90
66128;DHT22;52925;52.436;-1.952;2024-03-07T06:29:18;8.00;99.90
66128;DHT22;52925;52.436;-1.952;2024-03-07T06:30:41;8.00;99.90
66128;DHT22;52925;52.436;-1.952;2024-03-07T06:32:02;8.00;99.90
66128;DHT22;52925;52.436;-1.952;2024-03-07T06:33:23;8.00;99.90
66128;DHT22;52925;52.436;-1.952;2024-03-07T06:34:45;8.00;99.90
66128;DHT22;52925;52.436;-1.952;2024-03-07T06:36:07;8.00;99.90
66128;DHT22;52925;52.436;-1.952;2024-03-07T06:37:28;8.00;99.90
66128;DHT22;52925;52.436;-1.952;2024-03-07T06:38:49;8.00;99.90
66128;DHT22;52925;52.436;-1.952;2024-03-07T06:40:10;8.00;99.90
66128;DHT22;52925;52.436;-1.952;2024-03-07T06:41:35;8.00;99.90
66128;DHT22;52925;52.436;-1.952;2024-03-07T06:42:57;8.00;99.90
66128;DHT22;52925;52.436;-1.952;2024-03-07T06:44:17;8.00;99.90
66128;DHT22;52925;52.436;-1.952;2024-03-07T06:45:42;8.00;99.90
66128;DHT22;52925;52.436;-1.952;2024-03-07T06:47:02;8.00;99.90
66128;DHT22;52925;52.436;-1.952;2024-03-07T06:48:25;8.00;99.90
66128;DHT22;52925;52.436;-1.952;2024-03-07T06:49:45;8.00;99.90
66128;DHT22;52925;52.436;-1.952;2024-03-07T06:51:06;8.00;99.90
66128;DHT22;52925;52.436;-1.952;2024-03-07T06:52:25;8.10;99.90
66128;DHT22;52925;52.436;-1.952;2024-03-07T06:53:46;8.00;99.90
66128;DHT22;52925;52.436;-1.952;2024-03-07T06:55:06;8.00;99.90
66128;DHT22;52925;52.436;-1.952;2024-03-07T06:56:28;8.00;99.90
66128;DHT22;52925;52.436;-1.952;2024-03-07T06:57:49;8.00;99.90
66128;DHT22;52925;52.436;-1.952;2024-03-07T06:59:10;8.00;99.90
66128;DHT22;52925;52.436;-1.952;2024-03-07T07:00:30;8.10;99.90
66128;DHT22;52925;52.436;-1.952;2024-03-07T07:01:55;8.10;99.90
66128;DHT22;52925;52.436;-1.952;2024-03-07T07:03:18;8.10;99.90
66128;DHT22;52925;52.436;-1.952;2024-03-07T07:04:39;8.10;99.90
66128;DHT22;52925;52.436;-1.952;2024-03-07T07:06:00;8.10;99.90
66128;DHT22;52925;52.436;-1.952;2024-03-07T07:07:22;8.10;99.90
66128;DHT22;52925;52.436;-1.952;2024-03-07T07:08:42;8.10;99.90
66128;DHT22;52925;52.436;-1.952;2024-03-07T07:10:06;8.10;99.90
66128;DHT22;52925;52.436;-1.952;2024-03-07T07:11:28;8.10;99.90
66128;DHT22;52925;52.436;-1.952;2024-03-07T07:12:51;8.20;99.90
66128;DHT22;52925;52.436;-1.952;2024-03-07T07:14:14;8.20;99.90
66128;DHT22;52925;52.436;-1.952;2024-03-07T07:15:35;8.20;99.90
66128;DHT22;52925;52.436;-1.952;2024-03-07T07:16:56;8.20;99.90
66128;DHT22;52925;52.436;-1.952;2024-03-07T17:34:38;9.30;99.90
66128;DHT22;52925;52.436;-1.952;2024-03-07T17:36:01;9.20;99.90
66128;DHT22;52925;52.436;-1.952;2024-03-07T17:37:25;9.20;99.90
66128;DHT22;52925;52.436;-1.952;2024-03-07T17:38:48;9.20;99.90
66128;DHT22;52925;52.436;-1.952;2024-03-07T17:40:09;9.20;99.90
66128;DHT22;52925;52.436;-1.952;2024-03-07T17:41:34;9.20;99.90
66128;DHT22;52925;52.436;-1.952;2024-03-07T17:42:54;9.20;99.90
66128;DHT22;52925;52.436;-1.952;2024-03-07T17:44:16;9.20;99.90
66128;DHT22;52925;52.436;-1.952;2024-03-07T17:45:36;9.20;99.90
66128;DHT22;52925;52.436;-1.952;2024-03-07T17:46:57;9.20;99.90
66128;DHT22;52925;52.436;-1.952;2024-03-07T17:48:17;9.20;99.90
66128;DHT22;52925;52.436;-1.952;2024-03-07T17:49:40;9.30;99.90
66128;DHT22;52925;52.436;-1.952;2024-03-07T17:51:00;9.20;99.90
66128;DHT22;52925;52.436;-1.952;2024-03-07T17:52:24;9.30;99.90
66128;DHT22;52925;52.436;-1.952;2024-03-07T17:53:46;9.30;99.90
66128;DHT22;52925;52.436;-1.952;2024-03-07T17:55:09;9.30;99.90
66128;DHT22;52925;52.436;-1.952;2024-03-07T17:56:30;9.30;99.90
66128;DHT22;52925;52.436;-1.952;2024-03-07T17:57:52;9.20;99.90
66128;DHT22;52925;52.436;-1.952;2024-03-07T17:59:12;9.30;99.90
66128;DHT22;52925;52.436;-1.952;2024-03-07T18:00:37;9.20;99.90
66128;DHT22;52925;52.436;-1.952;2024-03-07T18:02:01;9.20;99.90
66128;DHT22;52925;52.436;-1.952;2024-03-07T18:03:23;9.30;99.90
66128;DHT22;52925;52.436;-1.952;2024-03-07T18:04:45;9.20;99.90
66128;DHT22;52925;52.436;-1.952;2024-03-07T18:06:09;9.20;99.90
66128;DHT22;52925;52.436;-1.952;2024-03-07T18:07:29;9.20;99.90
66128;DHT22;52925;52.436;-1.952;2024-03-07T18:08:50;9.20;99.90
66128;DHT22;52925;52.436;-1.952;2024-03-07T18:10:11;9.20;99.90
66128;DHT22;52925;52.436;-1.952;2024-03-07T18:11:37;9.20;99.90
66128;DHT22;52925;52.436;-1.952;2024-03-07T18:12:57;9.20;99.90
66128;DHT22;52925;52.436;-1.952;2024-03-07T18:14:20;9.30;99.90
66128;DHT22;52925;52.436;-1.952;2024-03-07T18:15:58;9.30;99.90
66128;DHT22;52925;52.436;-1.952;2024-03-07T18:17:19;9.20;99.90
66128;DHT22;52925;52.436;-1.952;2024-03-07T18:18:42;9.30;99.90
66128;DHT22;52925;52.436;-1.952;2024-03-07T18:20:07;9.20;99.90
66128;DHT22;52925;52.436;-1.952;2024-03-07T18:21:29;9.20;99.90
66128;DHT22;52925;52.436;-1.952;2024-03-07T18:22:50;9.20;99.90
66128;DHT22;52925;52.436;-1.952;2024-03-07T18:24:15;9.20;99.90
66128;DHT22;52925;52.436;-1.952;2024-03-07T18:25:36;9.30;99.90
66128;DHT22;52925;52.436;-1.952;2024-03-07T18:26:57;9.30;99.90
66128;DHT22;52925;52.436;-1.952;2024-03-07T18:28:23;9.20;99.90
66128;DHT22;52925;52.436;-1.952;2024-03-07T18:29:56;9.20;99.90
66128;DHT22;52925;52.436;-1.952;2024-03-07T18:31:30;9.30;99.90
66128;DHT22;52925;52.436;-1.952;2024-03-07T18:32:50;9.30;99.90
66128;DHT22;52925;52.436;-1.952;2024-03-07T18:34:12;9.20;99.90
66128;DHT22;52925;52.436;-1.952;2024-03-07T18:35:35;9.30;99.90
66128;DHT22;52925;52.436;-1.952;2024-03-07T18:36:56;9.30;99.90
66128;DHT22;52925;52.436;-1.952;2024-03-07T18:38:16;9.30;99.90
66128;DHT22;52925;52.436;-1.952;2024-03-07T18:39:37;9.30;99.90
66128;DHT22;52925;52.436;-1.952;2024-03-07T18:41:03;9.30;99.90
66128;DHT22;52925;52.436;-1.952;2024-03-07T18:42:26;9.30;99.90
66128;DHT22;52925;52.436;-1.952;2024-03-07T18:43:49;9.30;99.90
66128;DHT22;52925;52.436;-1.952;2024-03-07T18:45:39;9.30;99.90
66128;DHT22;52925;52.436;-1.952;2024-03-07T18:47:05;9.30;99.90
66128;DHT22;52925;52.436;-1.952;2024-03-07T18:48:26;9.30;99.90
66128;DHT22;52925;52.436;-1.952;2024-03-07T18:49:46;9.30;99.90
66128;DHT22;52925;52.436;-1.952;2024-03-07T18:51:09;9.30;99.90
66128;DHT22;52925;52.436;-1.952;2024-03-07T18:52:39;9.20;99.90
66128;DHT22;52925;52.436;-1.952;2024-03-07T18:54:00;9.30;99.90
66128;DHT22;52925;52.436;-1.952;2024-03-07T18:55:21;9.30;99.90
66128;DHT22;52925;52.436;-1.952;2024-03-07T18:56:49;9.30;99.90
66128;DHT22;52925;52.436;-1.952;2024-03-07T18:58:10;9.30;99.90
66128;DHT22;52925;52.436;-1.952;2024-03-07T18:59:32;9.30;99.90
66128;DHT22;52925;52.436;-1.952;2024-03-07T19:00:56;9.20;99.90
66128;DHT22;52925;52.436;-1.952;2024-03-07T19:02:32;9.20;99.90
66128;DHT22;52925;52.436;-1.952;2024-03-07T19:03:52;9.30;99.90
66128;DHT22;52925;52.436;-1.952;2024-03-07T19:05:14;9.30;99.90
66128;DHT22;52925;52.436;-1.952;2024-03-07T19:06:38;9.30;99.90
66128;DHT22;52925;52.436;-1.952;2024-03-07T19:08:01;9.30;99.90
66128;DHT22;52925;52.436;-1.952;2024-03-07T19:09:26;9.30;99.90
66128;DHT22;52925;52.436;-1.952;2024-03-07T19:10:52;9.30;99.90
66128;DHT22;52925;52.436;-1.952;2024-03-07T19:12:17;9.30;99.90
66128;DHT22;52925;52.436;-1.952;2024-03-07T19:13:38;9.30;99.90
66128;DHT22;52925;52.436;-1.952;2024-03-07T19:14:58;9.30;99.90
66128;DHT22;52925;52.436;-1.952;2024-03-07T19:16:28;9.30;99.90
66128;DHT22;52925;52.436;-1.952;2024-03-07T19:18:10;9.30;99.90
66128;DHT22;52925;52.436;-1.952;2024-03-07T19:19:39;9.30;99.90
66128;DHT22;52925;52.436;-1.952;2024-03-07T19:21:11;9.20;99.90
66128;DHT22;52925;52.436;-1.952;2024-03-07T19:22:33;9.20;99.90
66128;DHT22;52925;52.436;-1.952;2024-03-07T19:23:53;9.20;99.90
66128;DHT22;52925;52.436;-1.952;2024-03-07T19:25:15;9.20;99.90
66128;DHT22;52925;52.436;-1.952;2024-03-07T19:26:41;9.20;99.90
66128;DHT22;52925;52.436;-1.952;2024-03-07T19:28:05;9.20;99.90
66128;DHT22;52925;52.436;-1.952;2024-03-07T19:29:31;9.30;99.90
66128;DHT22;52925;52.436;-1.952;2024-03-07T19:30:51;9.30;99.90
66128;DHT22;52925;52.436;-1.952;2024-03-07T19:32:12;9.20;99.90
66128;DHT22;52925;52.436;-1.952;2024-03-07T19:33:33;9.20;99.90
66128;DHT22;52925;52.436;-1.952;2024-03-07T19:34:53;9.30;99.90
66128;DHT22;52925;52.436;-1.952;2024-03-07T19:36:15;9.20;99.90
66128;DHT22;52925;52.436;-1.952;2024-03-07T19:37:37;9.20;99.90
66128;DHT22;52925;52.436;-1.952;2024-03-07T19:38:57;9.20;99.90
66128;DHT22;52925;52.436;-1.952;2024-03-07T19:40:25;9.20;99.90
66128;DHT22;52925;52.436;-1.952;2024-03-07T19:41:46;9.20;99.90
66128;DHT22;52925;52.436;-1.952;2024-03-07T19:43:12;9.20;99.90
66128;DHT22;52925;52.436;-1.952;2024-03-07T19:44:31;9.20;99.90
66128;DHT22;52925;52.436;-1.952;2024-03-07T19:45:52;9.20;99.90
66128;DHT22;52925;52.436;-1.952;2024-03-07T19:47:14;9.20;99.90
66128;DHT22;52925;52.436;-1.952;2024-03-07T19:48:36;9.20;99.90
66128;DHT22;52925;52.436;-1.952;2024-03-07T19:49:56;9.20;99.90
66128;DHT22;52925;52.436;-1.952;2024-03-07T19:51:17;9.20;99.90
66128;DHT22;52925;52.436;-1.952;2024-03-07T19:52:38;9.20;99.90
66128;DHT22;52925;52.436;-1.952;2024-03-07T19:53:59;9.10;99.90
66128;DHT22;52925;52.436;-1.952;2024-03-07T19:55:19;9.20;99.90
66128;DHT22;52925;52.436;-1.952;2024-03-07T19:56:41;9.20;99.90
66128;DHT22;52925;52.436;-1.952;2024-03-07T19:58:01;9.20;99.90
66128;DHT22;52925;52.436;-1.952;2024-03-07T19:59:24;9.20;99.90
66128;DHT22;52925;52.436;-1.952;2024-03-07T20:00:45;9.20;99.90
66128;DHT22;52925;52.436;-1.952;2024-03-07T20:02:06;9.20;99.90
66128;DHT22;52925;52.436;-1.952;2024-03-07T20:03:26;9.20;99.90
66128;DHT22;52925;52.436;-1.952;2024-03-07T20:04:49;9.20;99.90
66128;DHT22;52925;52.436;-1.952;2024-03-07T20:06:10;9.20;99.90
66128;DHT22;52925;52.436;-1.952;2024-03-07T20:07:34;9.20;99.90
66128;DHT22;52925;52.436;-1.952;2024-03-07T20:08:56;9.20;99.90
66128;DHT22;52925;52.436;-1.952;2024-03-07T20:10:19;9.10;99.90
66128;DHT22;52925;52.436;-1.952;2024-03-07T20:11:39;9.10;99.90
66128;DHT22;52925;52.436;-1.952;2024-03-07T20:13:00;9.20;99.90
66128;DHT22;52925;52.436;-1.952;2024-03-07T20:14:20;9.20;99.90
66128;DHT22;52925;52.436;-1.952;2024-03-07T20:15:42;9.10;99.90
66128;DHT22;52925;52.436;-1.952;2024-03-07T20:17:04;9.10;99.90
66128;DHT22;52925;52.436;-1.952;2024-03-07T20:18:25;9.20;99.90
66128;DHT22;52925;52.436;-1.952;2024-03-07T20:19:45;9.20;99.90
66128;DHT22;52925;52.436;-1.952;2024-03-07T20:21:06;9.20;99.90
66128;DHT22;52925;52.436;-1.952;2024-03-07T20:22:26;9.20;99.90
66128;DHT22;52925;52.436;-1.952;2024-03-07T20:23:47;9.20;99.90
66128;DHT22;52925;52.436;-1.952;2024-03-07T20:25:09;9.20;99.90
66128;DHT22;52925;52.436;-1.952;2024-03-07T20:26:32;9.20;99.90
66128;DHT22;52925;52.436;-1.952;2024-03-07T20:28:04;9.20;99.90
66128;DHT22;52925;52.436;-1.952;2024-03-07T20:29:26;9.20;99.90
66128;DHT22;52925;52.436;-1.952;2024-03-07T20:30:48;9.10;99.90
66128;DHT22;52925;52.436;-1.952;2024-03-07T20:32:10;9.20;99.90
66128;DHT22;52925;52.436;-1.952;2024-03-07T20:33:30;9.20;99.90
66128;DHT22;52925;52.436;-1.952;2024-03-07T20:34:51;9.20;99.90
66128;DHT22;52925;52.436;-1.952;2024-03-07T20:36:12;9.20;99.90
66128;DHT22;52925;52.436;-1.952;2024-03-07T20:37:33;9.20;99.90
66128;DHT22;52925;52.436;-1.952;2024-03-07T20:38:52;9.20;99.90
66128;DHT22;52925;52.436;-1.952;2024-03-07T20:40:16;9.20;99.90
66128;DHT22;52925;52.436;-1.952;2024-03-07T20:41:37;9.20;99.90
66128;DHT22;52925;52.436;-1.952;2024-03-07T20:42:57;9.20;99.90
66128;DHT22;52925;52.436;-1.952;2024-03-07T20:44:17;9.20;99.90
66128;DHT22;52925;52.436;-1.952;2024-03-07T20:45:39;9.20;99.90
66128;DHT22;52925;52.436;-1.952;2024-03-07T20:47:01;9.20;99.90
66128;DHT22;52925;52.436;-1.952;2024-03-07T20:48:22;9.20;99.90
66128;DHT22;52925;52.436;-1.952;2024-03-07T20:49:44;9.20;99.90
66128;DHT22;52925;52.436;-1.952;2024-03-07T20:51:05;9.20;99.90
66128;DHT22;52925;52.436;-1.952;2024-03-07T20:52:30;9.20;99.90
66128;DHT22;52925;52.436;-1.952;2024-03-07T20:53:51;9.20;99.90
66128;DHT22;52925;52.436;-1.952;2024-03-07T20:55:16;9.20;99.90
66128;DHT22;52925;52.436;-1.952;2024-03-07T20:56:38;9.10;99.90
66128;DHT22;52925;52.436;-1.952;2024-03-07T20:58:04;9.10;99.90
66128;DHT22;52925;52.436;-1.952;2024-03-07T20:59:28;9.10;99.90
66128;DHT22;52925;52.436;-1.952;2024-03-07T21:00:50;9.10;99.90
66128;DHT22;52925;52.436;-1.952;2024-03-07T21:02:11;9.10;99.90
66128;DHT22;52925;52.436;-1.952;2024-03-07T21:03:32;9.10;99.90
66128;DHT22;52925;52.436;-1.952;2024-03-07T21:04:53;9.10;99.90
66128;DHT22;52925;52.436;-1.952;2024-03-07T21:06:14;9.10;99.90
66128;DHT22;52925;52.436;-1.952;2024-03-07T21:07:38;9.10;99.90
66128;DHT22;52925;52.436;-1.952;2024-03-07T21:09:00;9.10;99.90
66128;DHT22;52925;52.436;-1.952;2024-03-07T21:10:22;9.10;99.90
66128;DHT22;52925;52.436;-1.952;2024-03-07T21:11:47;9.00;99.90
66128;DHT22;52925;52.436;-1.952;2024-03-07T21:13:07;9.00;99.90
66128;DHT22;52925;52.436;-1.952;2024-03-07T21:14:28;9.10;99.90
66128;DHT22;52925;52.436;-1.952;2024-03-07T21:15:50;9.10;99.90
66128;DHT22;52925;52.436;-1.952;2024-03-07T21:17:10;9.10;99.90
66128;DHT22;52925;52.436;-1.952;2024-03-07T21:18:30;9.10;99.90
66128;DHT22;52925;52.436;-1.952;2024-03-07T21:19:50;9.10;99.90
66128;DHT22;52925;52.436;-1.952;2024-03-07T21:21:11;9.10;99.90
66128;DHT22;52925;52.436;-1.952;2024-03-07T21:22:31;9.10;99.90
66128;DHT22;52925;52.436;-1.952;2024-03-07T21:23:53;9.20;99.90
66128;DHT22;52925;52.436;-1.952;2024-03-07T21:25:14;9.10;99.90
66128;DHT22;52925;52.436;-1.952;2024-03-07T21:26:37;9.10;99.90
66128;DHT22;52925;52.436;-1.952;2024-03-07T21:27:57;9.10;99.90
66128;DHT22;52925;52.436;-1.952;2024-03-07T21:29:18;9.10;99.90
66128;DHT22;52925;52.436;-1.952;2024-03-07T21:30:38;9.10;99.90
66128;DHT22;52925;52.436;-1.952;2024-03-07T21:31:59;9.10;99.90
66128;DHT22;52925;52.436;-1.952;2024-03-07T21:33:19;9.10;99.90
66128;DHT22;52925;52.436;-1.952;2024-03-07T21:34:40;9.10;99.90
66128;DHT22;52925;52.436;-1.952;2024-03-07T21:36:00;9.10;99.90
66128;DHT22;52925;52.436;-1.952;2024-03-07T21:37:21;9.10;99.90
66128;DHT22;52925;52.436;-1.952;2024-03-07T21:38:42;9.10;99.90
66128;DHT22;52925;52.436;-1.952;2024-03-07T21:40:04;9.10;99.90
66128;DHT22;52925;52.436;-1.952;2024-03-07T21:41:24;9.10;99.90
66128;DHT22;52925;52.436;-1.952;2024-03-07T21:42:46;9.10;99.90
66128;DHT22;52925;52.436;-1.952;2024-03-07T21:44:07;9.10;99.90
66128;DHT22;52925;52.436;-1.952;2024-03-07T21:45:28;9.10;99.90
66128;DHT22;52925;52.436;-1.952;2024-03-07T21:46:48;9.10;99.90
66128;DHT22;52925;52.436;-1.952;2024-03-07T21:48:09;9.10;99.90
66128;DHT22;52925;52.436;-1.952;2024-03-07T21:49:29;9.10;99.90
66128;DHT22;52925;52.436;-1.952;2024-03-07T21:50:56;9.10;99.90
66128;DHT22;52925;52.436;-1.952;2024-03-07T21:52:21;9.10;99.90
66128;DHT22;52925;52.436;-1.952;2024-03-07T21:53:42;9.10;99.90
66128;DHT22;52925;52.436;-1.952;2024-03-07T21:55:04;9.10;99.90
66128;DHT22;52925;52.436;-1.952;2024-03-07T21:56:27;9.10;99.90
66128;DHT22;52925;52.436;-1.952;2024-03-07T21:57:48;9.10;99.90
66128;DHT22;52925;52.436;-1.952;2024-03-07T21:59:13;9.10;99.90
66128;DHT22;52925;52.436;-1.952;2024-03-07T22:00:34;9.10;99.90
66128;DHT22;52925;52.436;-1.952;2024-03-07T22:01:55;9.10;99.90
66128;DHT22;52925;52.436;-1.952;2024-03-07T22:03:17;9.10;99.90
66128;DHT22;52925;52.436;-1.952;2024-03-07T22:04:38;9.10;99.90
66128;DHT22;52925;52.436;-1.952;2024-03-07T22:05:58;9.10;99.90
66128;DHT22;52925;52.436;-1.952;2024-03-07T22:07:19;9.10;99.90
66128;DHT22;52925;52.436;-1.952;2024-03-07T22:08:40;9.10;99.90
66128;DHT22;52925;52.436;-1.952;2024-03-07T22:10:01;9.10;99.90
66128;DHT22;52925;52.436;-1.952;2024-03-07T22:11:24;9.10;99.90
66128;DHT22;52925;52.436;-1.952;2024-03-07T22:12:48;9.10;99.90
66128;DHT22;52925;52.436;-1.952;2024-03-07T22:14:08;9.10;99.90
66128;DHT22;52925;52.436;-1.952;2024-03-07T22:15:30;9.00;99.90
66128;DHT22;52925;52.436;-1.952;2024-03-07T22:16:50;9.10;99.90
66128;DHT22;52925;52.436;-1.952;2024-03-07T22:18:11;9.10;99.90
66128;DHT22;52925;52.436;-1.952;2024-03-07T22:19:31;9.00;99.90
66128;DHT22;52925;52.436;-1.952;2024-03-07T22:20:54;9.10;99.90
66128;DHT22;52925;52.436;-1.952;2024-03-07T22:22:15;9.10;99.90
66128;DHT22;52925;52.436;-1.952;2024-03-07T22:23:37;9.10;99.90
66128;DHT22;52925;52.436;-1.952;2024-03-07T22:24:58;9.10;99.90
66128;DHT22;52925;52.436;-1.952;2024-03-07T22:26:21;9.00;99.90
66128;DHT22;52925;52.436;-1.952;2024-03-07T22:27:42;9.00;99.90
66128;DHT22;52925;52.436;-1.952;2024-03-07T22:29:03;9.00;99.90
66128;DHT22;52925;52.436;-1.952;2024-03-07T22:30:24;9.00;99.90
66128;DHT22;52925;52.436;-1.952;2024-03-07T22:31:44;9.00;99.90
66128;DHT22;52925;52.436;-1.952;2024-03-07T22:33:06;9.00;99.90
66128;DHT22;52925;52.436;-1.952;2024-03-07T22:34:26;9.00;99.90
66128;DHT22;52925;52.436;-1.952;2024-03-07T22:35:47;9.10;99.90
66128;DHT22;52925;52.436;-1.952;2024-03-07T22:37:06;9.00;99.90
66128;DHT22;52925;52.436;-1.952;2024-03-07T22:38:30;9.00;99.90
66128;DHT22;52925;52.436;-1.952;2024-03-07T22:39:53;9.00;99.90
66128;DHT22;52925;52.436;-1.952;2024-03-07T22:41:15;9.00;99.90
66128;DHT22;52925;52.436;-1.952;2024-03-07T22:42:35;9.00;99.90
66128;DHT22;52925;52.436;-1.952;2024-03-07T22:43:57;9.00;99.90
66128;DHT22;52925;52.436;-1.952;2024-03-07T22:45:19;9.00;99.90
66128;DHT22;52925;52.436;-1.952;2024-03-07T22:46:40;9.00;99.90
66128;DHT22;52925;52.436;-1.952;2024-03-07T22:48:00;9.00;99.90
66128;DHT22;52925;52.436;-1.952;2024-03-07T22:49:20;9.00;99.90
66128;DHT22;52925;52.436;-1.952;2024-03-07T22:50:40;9.00;99.90
66128;DHT22;52925;52.436;-1.952;2024-03-07T22:52:06;9.00;99.90
66128;DHT22;52925;52.436;-1.952;2024-03-07T22:53:26;9.00;99.90
66128;DHT22;52925;52.436;-1.952;2024-03-07T22:54:48;9.00;99.90
66128;DHT22;52925;52.436;-1.952;2024-03-07T22:56:07;8.90;99.90
66128;DHT22;52925;52.436;-1.952;2024-03-07T22:57:31;8.90;99.90
66128;DHT22;52925;52.436;-1.952;2024-03-07T22:58:53;8.90;99.90
66128;DHT22;52925;52.436;-1.952;2024-03-07T23:00:15;9.00;99.90
66128;DHT22;52925;52.436;-1.952;2024-03-07T23:01:43;9.00;99.90
66128;DHT22;52925;52.436;-1.952;2024-03-07T23:03:04;8.90;99.90
66128;DHT22;52925;52.436;-1.952;2024-03-07T23:04:26;9.00;99.90
66128;DHT22;52925;52.436;-1.952;2024-03-07T23:05:48;9.00;99.90
66128;DHT22;52925;52.436;-1.952;2024-03-07T23:07:08;9.00;99.90
66128;DHT22;52925;52.436;-1.952;2024-03-07T23:08:32;9.00;99.90
66128;DHT22;52925;52.436;-1.952;2024-03-07T23:09:52;9.00;99.90
66128;DHT22;52925;52.436;-1.952;2024-03-07T23:11:13;9.00;99.90
66128;DHT22;52925;52.436;-1.952;2024-03-07T23:12:35;9.00;99.90
66128;DHT22;52925;52.436;-1.952;2024-03-07T23:13:57;9.00;99.90
